Armstrong, MO

2:30 AM CST on December 18, 2014 (GMT -0600)
East 24 | Change Station
CLOSE
Current Station
Personal Weather Station
Location: Moberly, MO
Elevation: 856 ft
Nearby Weather Stations
Active Advisory: Winter Weather Advisory

Elev 856 ft 39.45 °N, 92.40 °W | Updated 5 seconds ago

Overcast
Overcast
28.9 °F
Feels Like 29 °F
N
0.0
Wind Variable Wind from ESE
Gusts 0.0 mph

Today
High -- | Low -- °F
--% Chance of Precip.
Yesterday
High -- | Low -- °F
Precip. -- in
7:25 AM 4:49 PM
Waning Crescent, 16% visible
Pressure 30.26 in
Visibility 10.0 miles
Clouds Overcast 5500 ft
Windchill 29 °F
Dew Point 21 °F
Humidity 73%
Rainfall 0.00 in
Snow Depth Not available.
UV 0 out of 12
Pollen .20 out of 12
Air Quality Not available.
Flu Activity Not available.
METAR KVER 180815Z AUTO 06004KT 10SM OVC055 00/M03 A3026 RMK AO2 T00001033

More Conditions Fewer Conditions

Pressure 30.26 in
Visibility 10.0 miles
Clouds Overcast 5500 ft
Windchill 29 °F
Dew Point 21 °F
Humidity 73%
Rainfall 0.00 in
Snow Depth Not available.
UV 0 out of 12
Pollen .20 out of 12
Air Quality Not available.
Flu Activity Not available.
METAR KVER 180815Z AUTO 06004KT 10SM OVC055 00/M03 A3026 RMK AO2 T00001033

More Conditions Fewer Conditions

10-Day Weather Forecast

Almanac

Astronomy

Dec. 18, 2014 Rise Set
Actual Time
Civil Twilight
Nautical Twilight
Astronomical Twilight
Moon
Length of Visible Light
Length of Day
Tomorrow will be .
, % of the Moon is Illuminated

Today's Extremes

State Highs State Lows

Community

WunderPhotos

Upload Photos

1,778,907 photos uploaded!

WunderBlogs® & News

Nearby

Air Quality

  Air Quality AQ Index Pollutant
Not available.

Snow Depth

Station Depth Elevation

Earthquake Activity

City Distance Mag. Time & Date
Minimum magnitude displayed is 2.5.

Coastal Water Temperatures

Place Temperature

Nearby Weather Stations